sensor_id;sensor_type;location;lat;lon;timestamp;P1;durP1;ratioP1;P2;durP2;ratioP2
21166;SDS011;10741;52.272;9.580;2023-06-14T00:01:34;3.23;;;2.53;;
21166;SDS011;10741;52.272;9.580;2023-06-14T00:04:03;2.80;;;2.50;;
21166;SDS011;10741;52.272;9.580;2023-06-14T00:06:34;3.37;;;2.60;;
21166;SDS011;10741;52.272;9.580;2023-06-14T00:09:00;4.07;;;2.80;;
21166;SDS011;10741;52.272;9.580;2023-06-14T00:11:26;5.33;;;2.87;;
21166;SDS011;10741;52.272;9.580;2023-06-14T00:13:53;3.73;;;2.80;;
21166;SDS011;10741;52.272;9.580;2023-06-14T00:16:18;3.47;;;2.33;;
21166;SDS011;10741;52.272;9.580;2023-06-14T00:18:45;3.10;;;2.80;;
21166;SDS011;10741;52.272;9.580;2023-06-14T00:21:11;3.10;;;2.67;;
21166;SDS011;10741;52.272;9.580;2023-06-14T00:23:37;5.97;;;2.77;;
21166;SDS011;10741;52.272;9.580;2023-06-14T00:26:07;3.20;;;2.60;;
21166;SDS011;10741;52.272;9.580;2023-06-14T00:35:41;2.70;;;2.50;;
21166;SDS011;10741;52.272;9.580;2023-06-14T00:38:19;3.03;;;2.73;;
21166;SDS011;10741;52.272;9.580;2023-06-14T00:40:47;5.80;;;2.87;;
21166;SDS011;10741;52.272;9.580;2023-06-14T00:43:15;4.43;;;3.00;;
21166;SDS011;10741;52.272;9.580;2023-06-14T00:45:41;3.90;;;2.80;;
21166;SDS011;10741;52.272;9.580;2023-06-14T00:48:08;3.57;;;2.80;;
21166;SDS011;10741;52.272;9.580;2023-06-14T00:50:38;4.73;;;2.50;;
21166;SDS011;10741;52.272;9.580;2023-06-14T00:53:05;3.47;;;2.60;;
21166;SDS011;10741;52.272;9.580;2023-06-14T00:55:32;4.97;;;2.70;;
21166;SDS011;10741;52.272;9.580;2023-06-14T00:58:00;3.70;;;3.10;;
21166;SDS011;10741;52.272;9.580;2023-06-14T01:00:27;3.80;;;2.93;;
21166;SDS011;10741;52.272;9.580;2023-06-14T01:02:59;3.93;;;2.77;;
21166;SDS011;10741;52.272;9.580;2023-06-14T01:05:27;3.10;;;2.80;;
21166;SDS011;10741;52.272;9.580;2023-06-14T01:13:12;3.60;;;3.07;;
21166;SDS011;10741;52.272;9.580;2023-06-14T01:15:47;3.60;;;2.90;;
21166;SDS011;10741;52.272;9.580;2023-06-14T01:18:14;5.10;;;2.80;;
21166;SDS011;10741;52.272;9.580;2023-06-14T01:20:47;2.87;;;2.60;;
21166;SDS011;10741;52.272;9.580;2023-06-14T01:23:18;3.20;;;2.90;;
21166;SDS011;10741;52.272;9.580;2023-06-14T01:25:45;2.93;;;2.63;;
21166;SDS011;10741;52.272;9.580;2023-06-14T01:28:12;2.90;;;2.60;;
21166;SDS011;10741;52.272;9.580;2023-06-14T01:30:42;4.90;;;3.13;;
21166;SDS011;10741;52.272;9.580;2023-06-14T01:33:16;3.07;;;2.80;;
21166;SDS011;10741;52.272;9.580;2023-06-14T01:35:45;3.60;;;2.90;;
21166;SDS011;10741;52.272;9.580;2023-06-14T01:38:13;4.63;;;2.60;;
21166;SDS011;10741;52.272;9.580;2023-06-14T01:40:43;3.40;;;3.10;;
21166;SDS011;10741;52.272;9.580;2023-06-14T01:43:11;5.87;;;2.90;;
21166;SDS011;10741;52.272;9.580;2023-06-14T01:45:40;3.33;;;2.90;;
21166;SDS011;10741;52.272;9.580;2023-06-14T01:48:07;3.50;;;3.00;;
21166;SDS011;10741;52.272;9.580;2023-06-14T01:50:33;4.07;;;3.20;;
21166;SDS011;10741;52.272;9.580;2023-06-14T01:52:59;7.00;;;3.20;;
21166;SDS011;10741;52.272;9.580;2023-06-14T01:55:25;4.47;;;2.83;;
21166;SDS011;10741;52.272;9.580;2023-06-14T01:57:51;6.50;;;2.93;;
21166;SDS011;10741;52.272;9.580;2023-06-14T02:00:18;3.33;;;2.90;;
21166;SDS011;10741;52.272;9.580;2023-06-14T02:02:46;3.83;;;3.10;;
21166;SDS011;10741;52.272;9.580;2023-06-14T02:05:12;3.53;;;3.00;;
21166;SDS011;10741;52.272;9.580;2023-06-14T02:07:38;3.77;;;2.70;;
21166;SDS011;10741;52.272;9.580;2023-06-14T02:10:04;4.53;;;3.00;;
21166;SDS011;10741;52.272;9.580;2023-06-14T02:12:31;4.13;;;2.87;;
21166;SDS011;10741;52.272;9.580;2023-06-14T02:14:57;3.37;;;3.07;;
21166;SDS011;10741;52.272;9.580;2023-06-14T02:17:23;3.27;;;2.97;;
21166;SDS011;10741;52.272;9.580;2023-06-14T02:19:49;3.87;;;3.07;;
21166;SDS011;10741;52.272;9.580;2023-06-14T02:22:15;3.33;;;3.03;;
21166;SDS011;10741;52.272;9.580;2023-06-14T02:24:42;4.17;;;2.80;;
21166;SDS011;10741;52.272;9.580;2023-06-14T02:27:08;3.97;;;3.13;;
21166;SDS011;10741;52.272;9.580;2023-06-14T02:29:36;3.23;;;2.90;;
21166;SDS011;10741;52.272;9.580;2023-06-14T02:32:02;4.77;;;3.40;;
21166;SDS011;10741;52.272;9.580;2023-06-14T02:34:34;5.20;;;2.93;;
21166;SDS011;10741;52.272;9.580;2023-06-14T02:37:01;3.50;;;3.03;;
21166;SDS011;10741;52.272;9.580;2023-06-14T02:39:30;4.73;;;2.93;;
21166;SDS011;10741;52.272;9.580;2023-06-14T02:41:56;3.73;;;3.13;;
21166;SDS011;10741;52.272;9.580;2023-06-14T02:44:25;3.70;;;3.23;;
21166;SDS011;10741;52.272;9.580;2023-06-14T02:46:53;4.27;;;2.87;;
21166;SDS011;10741;52.272;9.580;2023-06-14T02:49:20;4.37;;;3.03;;
21166;SDS011;10741;52.272;9.580;2023-06-14T02:51:46;4.77;;;3.00;;
21166;SDS011;10741;52.272;9.580;2023-06-14T02:54:12;4.27;;;2.70;;
21166;SDS011;10741;52.272;9.580;2023-06-14T02:56:38;3.50;;;2.73;;
21166;SDS011;10741;52.272;9.580;2023-06-14T02:59:04;5.60;;;2.90;;
21166;SDS011;10741;52.272;9.580;2023-06-14T03:01:30;4.17;;;3.03;;
21166;SDS011;10741;52.272;9.580;2023-06-14T03:04:06;5.57;;;2.90;;
21166;SDS011;10741;52.272;9.580;2023-06-14T03:06:32;5.10;;;3.07;;
21166;SDS011;10741;52.272;9.580;2023-06-14T03:08:58;4.27;;;3.10;;
21166;SDS011;10741;52.272;9.580;2023-06-14T03:11:26;3.53;;;2.67;;
21166;SDS011;10741;52.272;9.580;2023-06-14T03:13:52;3.77;;;3.17;;
21166;SDS011;10741;52.272;9.580;2023-06-14T03:16:18;3.63;;;2.70;;
21166;SDS011;10741;52.272;9.580;2023-06-14T03:18:47;3.20;;;2.90;;
21166;SDS011;10741;52.272;9.580;2023-06-14T03:21:16;4.27;;;3.47;;
21166;SDS011;10741;52.272;9.580;2023-06-14T03:23:43;3.27;;;2.90;;
21166;SDS011;10741;52.272;9.580;2023-06-14T03:26:09;3.03;;;2.73;;
21166;SDS011;10741;52.272;9.580;2023-06-14T03:28:40;3.53;;;2.93;;
21166;SDS011;10741;52.272;9.580;2023-06-14T03:31:06;4.30;;;3.10;;
21166;SDS011;10741;52.272;9.580;2023-06-14T03:33:33;4.53;;;3.07;;
21166;SDS011;10741;52.272;9.580;2023-06-14T03:35:59;2.77;;;2.57;;
21166;SDS011;10741;52.272;9.580;2023-06-14T03:38:26;3.63;;;2.70;;
21166;SDS011;10741;52.272;9.580;2023-06-14T03:40:52;4.70;;;3.10;;
21166;SDS011;10741;52.272;9.580;2023-06-14T03:43:17;4.07;;;2.80;;
21166;SDS011;10741;52.272;9.580;2023-06-14T03:45:43;4.43;;;3.07;;
21166;SDS011;10741;52.272;9.580;2023-06-14T03:48:09;4.13;;;2.83;;
21166;SDS011;10741;52.272;9.580;2023-06-14T03:50:35;4.03;;;3.00;;
21166;SDS011;10741;52.272;9.580;2023-06-14T03:53:03;3.30;;;2.60;;
21166;SDS011;10741;52.272;9.580;2023-06-14T03:55:29;3.40;;;3.10;;
21166;SDS011;10741;52.272;9.580;2023-06-14T03:57:56;3.53;;;3.10;;
21166;SDS011;10741;52.272;9.580;2023-06-14T04:00:22;2.97;;;2.77;;
21166;SDS011;10741;52.272;9.580;2023-06-14T04:02:48;3.17;;;2.87;;
21166;SDS011;10741;52.272;9.580;2023-06-14T04:05:14;4.67;;;3.07;;
21166;SDS011;10741;52.272;9.580;2023-06-14T04:07:41;3.10;;;2.70;;
21166;SDS011;10741;52.272;9.580;2023-06-14T04:10:10;3.47;;;2.90;;
21166;SDS011;10741;52.272;9.580;2023-06-14T04:12:37;4.50;;;3.00;;
21166;SDS011;10741;52.272;9.580;2023-06-14T04:15:03;3.40;;;3.10;;
21166;SDS011;10741;52.272;9.580;2023-06-14T04:17:31;4.63;;;3.37;;
21166;SDS011;10741;52.272;9.580;2023-06-14T04:20:00;3.50;;;2.97;;
21166;SDS011;10741;52.272;9.580;2023-06-14T04:22:27;3.53;;;3.13;;
21166;SDS011;10741;52.272;9.580;2023-06-14T04:24:56;3.10;;;2.63;;
21166;SDS011;10741;52.272;9.580;2023-06-14T04:27:23;3.00;;;2.70;;
21166;SDS011;10741;52.272;9.580;2023-06-14T04:29:53;4.83;;;2.90;;
21166;SDS011;10741;52.272;9.580;2023-06-14T04:32:24;3.27;;;2.70;;
21166;SDS011;10741;52.272;9.580;2023-06-14T04:34:53;3.83;;;2.73;;
21166;SDS011;10741;52.272;9.580;2023-06-14T04:37:19;2.87;;;2.60;;
21166;SDS011;10741;52.272;9.580;2023-06-14T04:39:46;3.67;;;2.93;;
21166;SDS011;10741;52.272;9.580;2023-06-14T04:42:12;5.40;;;3.07;;
21166;SDS011;10741;52.272;9.580;2023-06-14T04:44:40;4.80;;;3.10;;
21166;SDS011;10741;52.272;9.580;2023-06-14T04:47:06;4.30;;;3.00;;
21166;SDS011;10741;52.272;9.580;2023-06-14T04:49:32;4.17;;;2.77;;
21166;SDS011;10741;52.272;9.580;2023-06-14T04:51:59;4.03;;;2.47;;
21166;SDS011;10741;52.272;9.580;2023-06-14T04:54:26;3.97;;;2.60;;
21166;SDS011;10741;52.272;9.580;2023-06-14T04:56:53;3.57;;;3.03;;
21166;SDS011;10741;52.272;9.580;2023-06-14T04:59:20;3.40;;;2.90;;
21166;SDS011;10741;52.272;9.580;2023-06-14T05:01:48;4.80;;;2.60;;
21166;SDS011;10741;52.272;9.580;2023-06-14T05:04:15;5.93;;;2.87;;
21166;SDS011;10741;52.272;9.580;2023-06-14T05:06:44;2.93;;;2.70;;
21166;SDS011;10741;52.272;9.580;2023-06-14T05:09:10;2.90;;;2.43;;
21166;SDS011;10741;52.272;9.580;2023-06-14T05:11:37;3.77;;;2.77;;
21166;SDS011;10741;52.272;9.580;2023-06-14T05:14:03;3.80;;;2.53;;
21166;SDS011;10741;52.272;9.580;2023-06-14T05:16:28;3.03;;;2.50;;
21166;SDS011;10741;52.272;9.580;2023-06-14T05:18:55;4.93;;;2.67;;
21166;SDS011;10741;52.272;9.580;2023-06-14T05:21:20;3.93;;;2.60;;
21166;SDS011;10741;52.272;9.580;2023-06-14T05:23:46;6.00;;;2.57;;
21166;SDS011;10741;52.272;9.580;2023-06-14T05:26:12;4.43;;;2.50;;
21166;SDS011;10741;52.272;9.580;2023-06-14T05:28:38;5.67;;;2.30;;
21166;SDS011;10741;52.272;9.580;2023-06-14T05:31:04;6.47;;;2.30;;
21166;SDS011;10741;52.272;9.580;2023-06-14T05:33:29;4.23;;;2.20;;
21166;SDS011;10741;52.272;9.580;2023-06-14T05:35:55;3.73;;;2.30;;
21166;SDS011;10741;52.272;9.580;2023-06-14T05:38:21;3.03;;;2.03;;
21166;SDS011;10741;52.272;9.580;2023-06-14T05:40:47;5.13;;;2.30;;
21166;SDS011;10741;52.272;9.580;2023-06-14T05:43:12;2.30;;;2.00;;
21166;SDS011;10741;52.272;9.580;2023-06-14T05:45:38;3.00;;;2.30;;
21166;SDS011;10741;52.272;9.580;2023-06-14T05:48:04;6.50;;;2.50;;
21166;SDS011;10741;52.272;9.580;2023-06-14T05:50:30;3.33;;;2.23;;
21166;SDS011;10741;52.272;9.580;2023-06-14T05:52:56;3.03;;;2.47;;
21166;SDS011;10741;52.272;9.580;2023-06-14T05:55:21;4.30;;;2.33;;
21166;SDS011;10741;52.272;9.580;2023-06-14T05:57:47;2.53;;;2.10;;
21166;SDS011;10741;52.272;9.580;2023-06-14T06:00:13;2.80;;;2.10;;
21166;SDS011;10741;52.272;9.580;2023-06-14T06:02:41;7.13;;;2.33;;
21166;SDS011;10741;52.272;9.580;2023-06-14T06:05:08;2.30;;;2.10;;
21166;SDS011;10741;52.272;9.580;2023-06-14T06:07:35;3.10;;;2.30;;
21166;SDS011;10741;52.272;9.580;2023-06-14T06:10:02;3.57;;;2.03;;
21166;SDS011;10741;52.272;9.580;2023-06-14T06:12:28;4.30;;;2.17;;
21166;SDS011;10741;52.272;9.580;2023-06-14T06:14:54;3.17;;;2.30;;
21166;SDS011;10741;52.272;9.580;2023-06-14T06:17:20;2.40;;;2.13;;
21166;SDS011;10741;52.272;9.580;2023-06-14T06:19:46;2.50;;;1.73;;
21166;SDS011;10741;52.272;9.580;2023-06-14T06:22:11;2.20;;;1.93;;
21166;SDS011;10741;52.272;9.580;2023-06-14T06:24:37;2.37;;;1.60;;
21166;SDS011;10741;52.272;9.580;2023-06-14T06:27:03;2.70;;;2.10;;
21166;SDS011;10741;52.272;9.580;2023-06-14T06:29:29;4.33;;;2.00;;
21166;SDS011;10741;52.272;9.580;2023-06-14T06:31:55;2.97;;;1.70;;
21166;SDS011;10741;52.272;9.580;2023-06-14T06:34:21;3.27;;;2.03;;
21166;SDS011;10741;52.272;9.580;2023-06-14T06:36:47;7.10;;;1.90;;
21166;SDS011;10741;52.272;9.580;2023-06-14T06:39:13;4.60;;;1.80;;
21166;SDS011;10741;52.272;9.580;2023-06-14T06:41:40;2.10;;;1.90;;
21166;SDS011;10741;52.272;9.580;2023-06-14T06:44:06;3.20;;;2.03;;
21166;SDS011;10741;52.272;9.580;2023-06-14T06:46:32;2.40;;;1.97;;
21166;SDS011;10741;52.272;9.580;2023-06-14T06:49:00;2.17;;;1.97;;
21166;SDS011;10741;52.272;9.580;2023-06-14T06:51:26;3.27;;;1.90;;
21166;SDS011;10741;52.272;9.580;2023-06-14T06:53:52;5.33;;;2.17;;
21166;SDS011;10741;52.272;9.580;2023-06-14T06:56:19;3.60;;;2.00;;
21166;SDS011;10741;52.272;9.580;2023-06-14T06:58:48;2.47;;;2.00;;
21166;SDS011;10741;52.272;9.580;2023-06-14T07:01:14;4.23;;;1.97;;
21166;SDS011;10741;52.272;9.580;2023-06-14T07:03:41;4.03;;;1.93;;
21166;SDS011;10741;52.272;9.580;2023-06-14T07:06:06;3.40;;;2.00;;
21166;SDS011;10741;52.272;9.580;2023-06-14T07:08:32;2.33;;;1.97;;
21166;SDS011;10741;52.272;9.580;2023-06-14T07:10:58;2.53;;;1.83;;
21166;SDS011;10741;52.272;9.580;2023-06-14T07:13:24;3.33;;;2.10;;
21166;SDS011;10741;52.272;9.580;2023-06-14T07:15:50;6.17;;;2.10;;
21166;SDS011;10741;52.272;9.580;2023-06-14T07:18:18;3.60;;;2.00;;
21166;SDS011;10741;52.272;9.580;2023-06-14T07:20:44;2.47;;;2.13;;
21166;SDS011;10741;52.272;9.580;2023-06-14T07:23:09;3.80;;;2.00;;
21166;SDS011;10741;52.272;9.580;2023-06-14T07:25:37;4.87;;;2.10;;
21166;SDS011;10741;52.272;9.580;2023-06-14T07:28:02;3.70;;;1.80;;
21166;SDS011;10741;52.272;9.580;2023-06-14T07:30:28;2.90;;;2.10;;
21166;SDS011;10741;52.272;9.580;2023-06-14T07:32:55;2.93;;;2.20;;
21166;SDS011;10741;52.272;9.580;2023-06-14T07:35:21;2.07;;;1.67;;
21166;SDS011;10741;52.272;9.580;2023-06-14T07:37:47;1.77;;;1.67;;
21166;SDS011;10741;52.272;9.580;2023-06-14T07:40:13;2.90;;;1.73;;
21166;SDS011;10741;52.272;9.580;2023-06-14T07:42:39;3.37;;;1.80;;
21166;SDS011;10741;52.272;9.580;2023-06-14T07:45:05;3.77;;;1.87;;
21166;SDS011;10741;52.272;9.580;2023-06-14T07:47:31;2.10;;;1.90;;
21166;SDS011;10741;52.272;9.580;2023-06-14T07:49:57;2.90;;;1.80;;
21166;SDS011;10741;52.272;9.580;2023-06-14T07:52:23;6.13;;;2.33;;
21166;SDS011;10741;52.272;9.580;2023-06-14T07:54:50;2.40;;;2.10;;
21166;SDS011;10741;52.272;9.580;2023-06-14T07:57:15;2.17;;;1.63;;
21166;SDS011;10741;52.272;9.580;2023-06-14T07:59:41;2.10;;;1.90;;
21166;SDS011;10741;52.272;9.580;2023-06-14T08:02:07;6.47;;;2.33;;
21166;SDS011;10741;52.272;9.580;2023-06-14T08:04:33;2.47;;;2.23;;
21166;SDS011;10741;52.272;9.580;2023-06-14T08:06:59;2.57;;;2.37;;
21166;SDS011;10741;52.272;9.580;2023-06-14T08:09:26;2.40;;;2.20;;
21166;SDS011;10741;52.272;9.580;2023-06-14T08:11:53;33.03;;;4.37;;
21166;SDS011;10741;52.272;9.580;2023-06-14T08:14:19;3.83;;;2.33;;
21166;SDS011;10741;52.272;9.580;2023-06-14T08:16:45;3.10;;;2.03;;
21166;SDS011;10741;52.272;9.580;2023-06-14T08:19:11;2.23;;;2.03;;
21166;SDS011;10741;52.272;9.580;2023-06-14T08:21:37;2.70;;;1.80;;
21166;SDS011;10741;52.272;9.580;2023-06-14T08:24:03;2.10;;;2.00;;
21166;SDS011;10741;52.272;9.580;2023-06-14T08:26:29;2.10;;;1.90;;
21166;SDS011;10741;52.272;9.580;2023-06-14T08:28:57;3.43;;;1.93;;
21166;SDS011;10741;52.272;9.580;2023-06-14T08:31:23;4.03;;;2.30;;
21166;SDS011;10741;52.272;9.580;2023-06-14T08:33:50;1.93;;;1.83;;
21166;SDS011;10741;52.272;9.580;2023-06-14T08:36:16;2.20;;;1.93;;
21166;SDS011;10741;52.272;9.580;2023-06-14T08:38:42;3.33;;;2.27;;
21166;SDS011;10741;52.272;9.580;2023-06-14T08:41:08;2.97;;;2.10;;
21166;SDS011;10741;52.272;9.580;2023-06-14T08:43:38;2.23;;;1.93;;
21166;SDS011;10741;52.272;9.580;2023-06-14T08:46:04;2.23;;;2.03;;
21166;SDS011;10741;52.272;9.580;2023-06-14T08:48:33;3.13;;;1.90;;
21166;SDS011;10741;52.272;9.580;2023-06-14T08:51:00;3.63;;;2.13;;
21166;SDS011;10741;52.272;9.580;2023-06-14T08:53:32;3.10;;;1.77;;
21166;SDS011;10741;52.272;9.580;2023-06-14T08:56:02;1.97;;;1.77;;
21166;SDS011;10741;52.272;9.580;2023-06-14T08:58:33;2.37;;;1.40;;
21166;SDS011;10741;52.272;9.580;2023-06-14T09:01:00;4.83;;;2.37;;
21166;SDS011;10741;52.272;9.580;2023-06-14T09:03:27;2.30;;;2.00;;
21166;SDS011;10741;52.272;9.580;2023-06-14T09:05:59;2.97;;;1.80;;
21166;SDS011;10741;52.272;9.580;2023-06-14T09:08:26;2.10;;;1.90;;
21166;SDS011;10741;52.272;9.580;2023-06-14T09:10:56;2.17;;;1.80;;
21166;SDS011;10741;52.272;9.580;2023-06-14T09:13:22;1.87;;;1.77;;
21166;SDS011;10741;52.272;9.580;2023-06-14T09:15:48;2.20;;;1.60;;
21166;SDS011;10741;52.272;9.580;2023-06-14T09:18:13;2.00;;;1.80;;
21166;SDS011;10741;52.272;9.580;2023-06-14T09:20:40;3.70;;;1.40;;
21166;SDS011;10741;52.272;9.580;2023-06-14T09:23:06;1.70;;;1.60;;
21166;SDS011;10741;52.272;9.580;2023-06-14T09:25:36;1.57;;;1.47;;
21166;SDS011;10741;52.272;9.580;2023-06-14T09:28:07;2.23;;;1.50;;
21166;SDS011;10741;52.272;9.580;2023-06-14T09:30:33;1.97;;;1.87;;
21166;SDS011;10741;52.272;9.580;2023-06-14T09:33:00;3.20;;;1.80;;
21166;SDS011;10741;52.272;9.580;2023-06-14T09:35:26;2.10;;;1.80;;
21166;SDS011;10741;52.272;9.580;2023-06-14T09:37:54;5.70;;;1.60;;
21166;SDS011;10741;52.272;9.580;2023-06-14T09:40:21;2.40;;;1.50;;
21166;SDS011;10741;52.272;9.580;2023-06-14T09:42:47;1.57;;;1.47;;
21166;SDS011;10741;52.272;9.580;2023-06-14T09:45:12;2.20;;;1.80;;
21166;SDS011;10741;52.272;9.580;2023-06-14T09:47:39;2.10;;;1.70;;
21166;SDS011;10741;52.272;9.580;2023-06-14T09:50:05;3.00;;;1.70;;
21166;SDS011;10741;52.272;9.580;2023-06-14T09:52:31;1.70;;;1.60;;
21166;SDS011;10741;52.272;9.580;2023-06-14T09:54:58;2.97;;;2.00;;
21166;SDS011;10741;52.272;9.580;2023-06-14T09:57:25;2.97;;;1.47;;
21166;SDS011;10741;52.272;9.580;2023-06-14T09:59:56;3.90;;;1.30;;
21166;SDS011;10741;52.272;9.580;2023-06-14T10:02:29;3.73;;;1.43;;
21166;SDS011;10741;52.272;9.580;2023-06-14T10:05:08;2.20;;;1.20;;
21166;SDS011;10741;52.272;9.580;2023-06-14T10:07:40;2.07;;;1.43;;
21166;SDS011;10741;52.272;9.580;2023-06-14T10:10:20;2.87;;;1.23;;
21166;SDS011;10741;52.272;9.580;2023-06-14T10:12:47;2.73;;;1.50;;
21166;SDS011;10741;52.272;9.580;2023-06-14T10:15:21;3.57;;;1.50;;
21166;SDS011;10741;52.272;9.580;2023-06-14T10:17:57;1.60;;;1.50;;
21166;SDS011;10741;52.272;9.580;2023-06-14T10:20:33;1.60;;;1.50;;
21166;SDS011;10741;52.272;9.580;2023-06-14T10:23:13;1.43;;;1.23;;
21166;SDS011;10741;52.272;9.580;2023-06-14T10:25:50;1.87;;;1.50;;
21166;SDS011;10741;52.272;9.580;2023-06-14T10:28:21;2.07;;;1.60;;
21166;SDS011;10741;52.272;9.580;2023-06-14T10:33:48;2.43;;;1.40;;
21166;SDS011;10741;52.272;9.580;2023-06-14T10:39:00;2.10;;;1.73;;
21166;SDS011;10741;52.272;9.580;2023-06-14T10:41:37;2.57;;;1.67;;
21166;SDS011;10741;52.272;9.580;2023-06-14T10:47:00;2.17;;;1.50;;
21166;SDS011;10741;52.272;9.580;2023-06-14T10:52:12;3.63;;;1.80;;
21166;SDS011;10741;52.272;9.580;2023-06-14T10:54:58;1.90;;;1.80;;
21166;SDS011;10741;52.272;9.580;2023-06-14T10:57:57;3.23;;;1.80;;
21166;SDS011;10741;52.272;9.580;2023-06-14T11:00:28;2.50;;;1.70;;
21166;SDS011;10741;52.272;9.580;2023-06-14T11:06:12;2.50;;;1.63;;
21166;SDS011;10741;52.272;9.580;2023-06-14T11:11:21;2.07;;;1.87;;
21166;SDS011;10741;52.272;9.580;2023-06-14T11:13:50;3.23;;;2.10;;
21166;SDS011;10741;52.272;9.580;2023-06-14T11:16:17;4.57;;;2.00;;
21166;SDS011;10741;52.272;9.580;2023-06-14T11:18:46;4.90;;;2.20;;
21166;SDS011;10741;52.272;9.580;2023-06-14T11:21:15;4.20;;;1.90;;
21166;SDS011;10741;52.272;9.580;2023-06-14T11:23:48;2.47;;;2.10;;
21166;SDS011;10741;52.272;9.580;2023-06-14T11:26:15;4.33;;;2.10;;
21166;SDS011;10741;52.272;9.580;2023-06-14T11:28:49;2.23;;;1.87;;
21166;SDS011;10741;52.272;9.580;2023-06-14T11:31:21;7.13;;;2.30;;
21166;SDS011;10741;52.272;9.580;2023-06-14T11:33:50;4.10;;;2.20;;
21166;SDS011;10741;52.272;9.580;2023-06-14T11:36:18;3.00;;;2.10;;
21166;SDS011;10741;52.272;9.580;2023-06-14T11:38:43;3.87;;;2.17;;
21166;SDS011;10741;52.272;9.580;2023-06-14T11:41:09;4.57;;;2.33;;
21166;SDS011;10741;52.272;9.580;2023-06-14T11:43:35;2.47;;;2.10;;
21166;SDS011;10741;52.272;9.580;2023-06-14T11:46:01;3.60;;;2.73;;
21166;SDS011;10741;52.272;9.580;2023-06-14T11:48:40;4.50;;;2.27;;
21166;SDS011;10741;52.272;9.580;2023-06-14T11:51:07;2.40;;;2.20;;
21166;SDS011;10741;52.272;9.580;2023-06-14T11:53:33;3.13;;;2.00;;
21166;SDS011;10741;52.272;9.580;2023-06-14T11:55:59;3.40;;;2.50;;
21166;SDS011;10741;52.272;9.580;2023-06-14T11:58:26;3.60;;;2.90;;
21166;SDS011;10741;52.272;9.580;2023-06-14T12:00:52;2.77;;;2.03;;
21166;SDS011;10741;52.272;9.580;2023-06-14T12:03:26;4.13;;;2.30;;
21166;SDS011;10741;52.272;9.580;2023-06-14T12:06:02;6.27;;;2.47;;
21166;SDS011;10741;52.272;9.580;2023-06-14T12:08:34;4.60;;;2.17;;
21166;SDS011;10741;52.272;9.580;2023-06-14T12:11:11;3.90;;;2.17;;
21166;SDS011;10741;52.272;9.580;2023-06-14T12:13:41;3.30;;;2.30;;
21166;SDS011;10741;52.272;9.580;2023-06-14T12:16:08;2.57;;;2.30;;
21166;SDS011;10741;52.272;9.580;2023-06-14T12:18:35;9.23;;;2.37;;
21166;SDS011;10741;52.272;9.580;2023-06-14T12:21:07;2.87;;;2.53;;
21166;SDS011;10741;52.272;9.580;2023-06-14T12:23:43;5.93;;;2.20;;
21166;SDS011;10741;52.272;9.580;2023-06-14T12:26:12;3.77;;;2.50;;
21166;SDS011;10741;52.272;9.580;2023-06-14T12:28:39;3.10;;;2.17;;
21166;SDS011;10741;52.272;9.580;2023-06-14T12:31:07;3.67;;;2.10;;
21166;SDS011;10741;52.272;9.580;2023-06-14T12:33:32;9.17;;;2.40;;
21166;SDS011;10741;52.272;9.580;2023-06-14T12:35:58;3.83;;;2.60;;
21166;SDS011;10741;52.272;9.580;2023-06-14T12:38:24;5.97;;;2.57;;
21166;SDS011;10741;52.272;9.580;2023-06-14T12:40:50;2.50;;;2.10;;
21166;SDS011;10741;52.272;9.580;2023-06-14T12:43:16;3.30;;;2.40;;
21166;SDS011;10741;52.272;9.580;2023-06-14T12:45:41;2.63;;;2.37;;
21166;SDS011;10741;52.272;9.580;2023-06-14T12:48:07;4.23;;;2.30;;
21166;SDS011;10741;52.272;9.580;2023-06-14T12:50:34;2.87;;;2.57;;
21166;SDS011;10741;52.272;9.580;2023-06-14T12:52:59;4.77;;;2.27;;
21166;SDS011;10741;52.272;9.580;2023-06-14T12:55:25;5.30;;;2.30;;
21166;SDS011;10741;52.272;9.580;2023-06-14T12:57:51;3.07;;;2.60;;
21166;SDS011;10741;52.272;9.580;2023-06-14T13:00:17;4.03;;;2.67;;
21166;SDS011;10741;52.272;9.580;2023-06-14T13:02:43;5.37;;;2.60;;
21166;SDS011;10741;52.272;9.580;2023-06-14T13:05:09;5.43;;;2.43;;
21166;SDS011;10741;52.272;9.580;2023-06-14T13:07:35;3.00;;;2.57;;
21166;SDS011;10741;52.272;9.580;2023-06-14T13:10:01;4.70;;;2.40;;
21166;SDS011;10741;52.272;9.580;2023-06-14T13:12:26;3.33;;;2.60;;
21166;SDS011;10741;52.272;9.580;2023-06-14T13:14:52;4.80;;;2.53;;
21166;SDS011;10741;52.272;9.580;2023-06-14T13:17:18;6.33;;;2.70;;
21166;SDS011;10741;52.272;9.580;2023-06-14T13:19:44;5.67;;;2.90;;
21166;SDS011;10741;52.272;9.580;2023-06-14T13:22:10;8.53;;;3.07;;
21166;SDS011;10741;52.272;9.580;2023-06-14T13:24:35;2.87;;;2.60;;
21166;SDS011;10741;52.272;9.580;2023-06-14T13:27:01;6.80;;;2.73;;
21166;SDS011;10741;52.272;9.580;2023-06-14T13:29:27;4.03;;;2.43;;
21166;SDS011;10741;52.272;9.580;2023-06-14T13:31:53;3.63;;;2.70;;
21166;SDS011;10741;52.272;9.580;2023-06-14T13:34:19;5.47;;;3.20;;
21166;SDS011;10741;52.272;9.580;2023-06-14T13:36:46;3.90;;;3.53;;
21166;SDS011;10741;52.272;9.580;2023-06-14T13:39:12;5.87;;;3.00;;
21166;SDS011;10741;52.272;9.580;2023-06-14T13:41:38;5.67;;;2.80;;
21166;SDS011;10741;52.272;9.580;2023-06-14T13:44:04;5.97;;;2.80;;
21166;SDS011;10741;52.272;9.580;2023-06-14T13:46:30;5.10;;;2.80;;
21166;SDS011;10741;52.272;9.580;2023-06-14T13:48:56;6.03;;;3.00;;
21166;SDS011;10741;52.272;9.580;2023-06-14T13:51:22;5.07;;;3.20;;
21166;SDS011;10741;52.272;9.580;2023-06-14T13:53:48;4.57;;;3.20;;
21166;SDS011;10741;52.272;9.580;2023-06-14T13:56:15;4.37;;;2.73;;
21166;SDS011;10741;52.272;9.580;2023-06-14T13:58:42;5.60;;;2.70;;
21166;SDS011;10741;52.272;9.580;2023-06-14T14:01:08;3.77;;;3.07;;
21166;SDS011;10741;52.272;9.580;2023-06-14T14:03:34;5.80;;;3.30;;
21166;SDS011;10741;52.272;9.580;2023-06-14T14:06:01;6.73;;;3.23;;
21166;SDS011;10741;52.272;9.580;2023-06-14T14:08:27;7.47;;;3.10;;
21166;SDS011;10741;52.272;9.580;2023-06-14T14:10:53;6.03;;;3.57;;
21166;SDS011;10741;52.272;9.580;2023-06-14T14:13:19;7.67;;;3.00;;
21166;SDS011;10741;52.272;9.580;2023-06-14T14:15:46;5.00;;;2.90;;
21166;SDS011;10741;52.272;9.580;2023-06-14T14:18:11;4.37;;;3.30;;
21166;SDS011;10741;52.272;9.580;2023-06-14T14:20:37;6.27;;;2.97;;
21166;SDS011;10741;52.272;9.580;2023-06-14T14:23:03;7.20;;;2.60;;
21166;SDS011;10741;52.272;9.580;2023-06-14T14:25:29;9.27;;;3.23;;
21166;SDS011;10741;52.272;9.580;2023-06-14T14:27:55;6.97;;;2.90;;
21166;SDS011;10741;52.272;9.580;2023-06-14T14:30:21;6.67;;;2.97;;
21166;SDS011;10741;52.272;9.580;2023-06-14T14:32:48;4.47;;;3.03;;
21166;SDS011;10741;52.272;9.580;2023-06-14T14:35:16;5.77;;;2.77;;
21166;SDS011;10741;52.272;9.580;2023-06-14T14:37:42;8.77;;;2.90;;
21166;SDS011;10741;52.272;9.580;2023-06-14T14:40:08;5.17;;;2.97;;
21166;SDS011;10741;52.272;9.580;2023-06-14T14:42:35;4.70;;;2.70;;
21166;SDS011;10741;52.272;9.580;2023-06-14T14:45:02;6.13;;;2.80;;
21166;SDS011;10741;52.272;9.580;2023-06-14T14:47:28;3.83;;;3.00;;
21166;SDS011;10741;52.272;9.580;2023-06-14T14:49:54;6.50;;;3.17;;
21166;SDS011;10741;52.272;9.580;2023-06-14T14:52:19;7.50;;;3.40;;
21166;SDS011;10741;52.272;9.580;2023-06-14T14:54:45;3.13;;;2.87;;
21166;SDS011;10741;52.272;9.580;2023-06-14T14:57:11;6.33;;;3.03;;
21166;SDS011;10741;52.272;9.580;2023-06-14T14:59:36;4.97;;;2.90;;
21166;SDS011;10741;52.272;9.580;2023-06-14T15:02:02;4.83;;;3.20;;
21166;SDS011;10741;52.272;9.580;2023-06-14T15:04:28;7.20;;;3.07;;
21166;SDS011;10741;52.272;9.580;2023-06-14T15:06:54;3.77;;;3.20;;
21166;SDS011;10741;52.272;9.580;2023-06-14T15:09:20;7.27;;;2.80;;
21166;SDS011;10741;52.272;9.580;2023-06-14T15:11:45;3.33;;;3.03;;
21166;SDS011;10741;52.272;9.580;2023-06-14T15:14:11;5.33;;;2.67;;
21166;SDS011;10741;52.272;9.580;2023-06-14T15:16:37;6.70;;;2.90;;
21166;SDS011;10741;52.272;9.580;2023-06-14T15:19:02;7.23;;;3.40;;